createdAt,value
2023-05-10T00:02:03.454Z,84.48
2023-05-10T00:07:07.855Z,84.91
2023-05-10T00:12:12.062Z,84.65
2023-05-10T00:17:17.665Z,83.33
2023-05-10T00:22:22.112Z,85.06
2023-05-10T00:27:26.119Z,83.45
2023-05-10T00:32:31.963Z,84.54
2023-05-10T00:37:36.887Z,86.30
2023-05-10T00:42:41.806Z,85.99
2023-05-10T00:47:47.857Z,85.64
2023-05-10T00:52:52.622Z,86.25
2023-05-10T00:57:56.884Z,85.67
2023-05-10T01:03:02.854Z,85.58
2023-05-10T01:08:07.584Z,84.84
2023-05-10T01:13:21.327Z,85.85
2023-05-10T01:18:28.733Z,86.02
2023-05-10T01:23:47.985Z,88.68
2023-05-10T01:29:27.358Z,88.65
2023-05-10T01:34:37.858Z,89.32
2023-05-10T01:39:48.618Z,88.32
2023-05-10T01:45:00.801Z,87.22
2023-05-10T01:50:12.412Z,83.02
2023-05-10T01:55:18.963Z,83.10
2023-05-10T02:00:23.272Z,80.79
2023-05-10T02:05:32.637Z,80.73
2023-05-10T02:10:39.883Z,79.11
2023-05-10T02:15:49.292Z,76.68
2023-05-10T02:20:57.274Z,78.29
2023-05-10T02:26:03.970Z,80.75
2023-05-10T02:31:09.972Z,80.77
2023-05-10T02:36:19.334Z,80.38
2023-05-10T02:41:27.460Z,79.43
2023-05-10T02:46:32.629Z,77.96
2023-05-10T02:51:45.941Z,79.44
2023-05-10T02:56:55.601Z,78.85
2023-05-10T03:01:59.898Z,78.19
2023-05-10T03:07:06.258Z,76.45
2023-05-10T03:12:16.604Z,76.79
2023-05-10T03:17:27.988Z,77.74
2023-05-10T03:22:38.600Z,79.15
2023-05-10T03:27:46.068Z,79.06
2023-05-10T03:32:50.508Z,80.56
2023-05-10T03:37:57.264Z,80.54
2023-05-10T03:43:04.899Z,79.13
2023-05-10T03:48:10.072Z,78.98
2023-05-10T03:53:15.764Z,78.61
2023-05-10T03:58:20.021Z,80.20
2023-05-10T04:03:25.050Z,80.71
2023-05-10T04:08:33.818Z,81.40
2023-05-10T04:13:38.309Z,78.85
2023-05-10T04:18:42.554Z,79.42
2023-05-10T04:23:48.225Z,79.41
2023-05-10T04:28:52.349Z,78.88
2023-05-10T04:33:56.483Z,79.42
2023-05-10T04:39:04.183Z,79.83
2023-05-10T04:44:09.627Z,78.37
2023-05-10T04:49:13.862Z,79.60
2023-05-10T04:54:19.347Z,77.96
2023-05-10T04:59:23.867Z,76.31
2023-05-10T05:04:27.892Z,73.78
2023-05-10T05:09:34.127Z,73.70
2023-05-10T05:14:38.424Z,72.84
2023-05-10T05:19:42.468Z,70.90
2023-05-10T05:24:48.083Z,71.15
2023-05-10T05:29:52.186Z,71.14
2023-05-10T05:34:57.105Z,70.64
2023-05-10T05:40:03.786Z,69.62
2023-05-10T05:45:09.860Z,69.05
2023-05-10T05:50:14.057Z,69.89
2023-05-10T05:55:19.964Z,68.93
2023-05-10T06:00:24.377Z,66.55
2023-05-10T06:05:28.344Z,66.68
2023-05-10T06:10:33.678Z,66.23
2023-05-10T06:15:37.752Z,65.82
2023-05-10T06:20:44.169Z,65.50
2023-05-10T06:25:49.694Z,65.11
2023-05-10T06:30:53.949Z,64.39
2023-05-10T06:35:58.263Z,64.04
2023-05-10T06:41:04.494Z,62.86
2023-05-10T06:46:08.996Z,62.33
2023-05-10T06:51:15.593Z,62.05
2023-05-10T06:56:22.508Z,62.09
2023-05-10T07:01:26.925Z,61.31
2023-05-10T07:06:34.070Z,60.92
2023-05-10T07:11:40.018Z,60.96
2023-05-10T07:16:46.090Z,59.81
2023-05-10T07:21:51.938Z,59.90
2023-05-10T07:26:57.439Z,59.67
2023-05-10T07:32:02.394Z,58.88
2023-05-10T07:37:07.315Z,58.44
2023-05-10T07:42:12.686Z,59.38
2023-05-10T07:47:16.998Z,57.96
2023-05-10T07:52:22.633Z,58.28
2023-05-10T07:57:28.493Z,57.85
2023-05-10T08:02:32.641Z,57.98
2023-05-10T08:07:37.331Z,55.38
2023-05-10T08:12:43.042Z,56.32
2023-05-10T08:17:47.732Z,56.09
2023-05-10T08:22:52.420Z,56.42
2023-05-10T08:27:57.866Z,56.36
2023-05-10T08:33:01.996Z,57.50
2023-05-10T08:38:06.147Z,56.40
2023-05-10T08:43:15.671Z,55.84
2023-05-10T08:48:22.769Z,56.04
2023-05-10T08:53:28.854Z,56.25
2023-05-10T08:58:34.384Z,56.20
2023-05-10T09:03:41.249Z,56.02
2023-05-10T09:08:46.581Z,56.88
2023-05-10T09:13:54.686Z,57.45
2023-05-10T09:18:59.476Z,55.87
2023-05-10T09:24:07.424Z,55.37
2023-05-10T09:29:15.209Z,55.87
2023-05-10T09:34:22.171Z,55.01
2023-05-10T09:39:34.263Z,53.64
2023-05-10T09:44:42.397Z,53.98
2023-05-10T09:49:46.705Z,52.01
2023-05-10T09:54:55.729Z,52.48
2023-05-10T10:00:06.161Z,52.33
2023-05-10T10:05:36.392Z,52.81
2023-05-10T10:10:42.535Z,52.42
2023-05-10T10:15:52.366Z,53.43
2023-05-10T10:20:57.088Z,52.10
2023-05-10T10:26:02.001Z,52.86
2023-05-10T10:31:20.240Z,52.91
2023-05-10T10:36:24.403Z,53.04
2023-05-10T10:41:33.317Z,52.18
2023-05-10T10:47:02.601Z,51.89
2023-05-10T10:52:17.845Z,52.85
2023-05-10T10:57:23.788Z,53.91
2023-05-10T11:02:50.064Z,53.88
2023-05-10T11:07:55.968Z,53.25
2023-05-10T11:13:03.134Z,53.94
2023-05-10T11:18:22.295Z,54.00
2023-05-10T11:23:31.676Z,53.22
2023-05-10T11:28:35.710Z,53.86
2023-05-10T11:33:47.019Z,53.81
2023-05-10T11:38:51.461Z,53.80
2023-05-10T11:43:57.930Z,53.90
2023-05-10T11:49:05.760Z,53.71
2023-05-10T11:54:11.628Z,54.54
2023-05-10T11:59:16.952Z,53.57
2023-05-10T12:04:22.920Z,53.84
2023-05-10T12:09:42.527Z,53.83
2023-05-10T12:14:53.454Z,54.56
2023-05-10T12:20:16.340Z,54.46
2023-05-10T12:25:21.238Z,53.89
2023-05-10T12:30:26.280Z,54.66
2023-05-10T12:35:35.500Z,54.40
2023-05-10T12:40:40.057Z,54.52
2023-05-10T12:45:49.069Z,54.97
2023-05-10T12:50:54.540Z,54.76
2023-05-10T12:55:59.313Z,54.96
2023-05-10T13:01:04.192Z,54.24
2023-05-10T13:06:11.250Z,55.02
2023-05-10T13:11:17.752Z,53.82
2023-05-10T13:16:23.457Z,54.47
2023-05-10T13:21:30.246Z,54.62
2023-05-10T13:26:34.686Z,54.83
2023-05-10T13:31:38.874Z,54.59
2023-05-10T13:36:44.380Z,54.35
2023-05-10T13:41:53.852Z,54.61
2023-05-10T13:46:58.866Z,55.05
2023-05-10T13:52:08.217Z,55.13
2023-05-10T13:57:13.914Z,56.10
2023-05-10T14:02:18.139Z,56.40
2023-05-10T14:07:23.893Z,55.92
2023-05-10T14:12:28.357Z,55.87
2023-05-10T14:17:32.988Z,56.24
2023-05-10T14:22:38.477Z,56.50
2023-05-10T14:27:42.730Z,56.74
2023-05-10T14:32:46.933Z,56.93
2023-05-10T14:37:52.552Z,56.85
2023-05-10T14:42:58.756Z,56.67
2023-05-10T14:48:05.927Z,57.36
2023-05-10T14:53:11.876Z,58.26
2023-05-10T14:58:17.009Z,57.71
2023-05-10T15:03:22.829Z,59.07
2023-05-10T15:08:29.821Z,58.89
2023-05-10T15:13:34.120Z,59.55
2023-05-10T15:18:38.295Z,60.68
2023-05-10T15:23:44.774Z,61.49
2023-05-10T15:28:49.126Z,62.21
2023-05-10T15:33:53.514Z,62.42
2023-05-10T15:38:58.944Z,63.23
2023-05-10T15:44:03.649Z,63.88
2023-05-10T15:49:08.193Z,64.08
2023-05-10T15:54:16.360Z,64.57
2023-05-10T15:59:22.666Z,64.66
2023-05-10T16:04:27.504Z,65.26
2023-05-10T16:09:34.238Z,65.50
2023-05-10T16:14:38.468Z,65.41
2023-05-10T16:19:42.707Z,65.49
2023-05-10T16:24:49.953Z,64.23
2023-05-10T16:29:54.253Z,65.16
2023-05-10T16:35:02.985Z,65.07
2023-05-10T16:40:10.546Z,65.77
2023-05-10T16:45:16.461Z,66.08
2023-05-10T16:50:21.386Z,67.03
2023-05-10T16:55:28.752Z,67.14
2023-05-10T17:00:35.168Z,67.71
2023-05-10T17:05:39.298Z,67.67
2023-05-10T17:10:45.004Z,67.21
2023-05-10T17:15:49.356Z,67.10
2023-05-10T17:20:55.400Z,66.94
2023-05-10T17:26:01.782Z,67.06
2023-05-10T17:31:07.160Z,67.62
2023-05-10T17:36:11.651Z,67.28
2023-05-10T17:41:20.287Z,67.29
2023-05-10T17:46:24.875Z,67.91
2023-05-10T17:51:30.488Z,68.25
2023-05-10T17:56:36.013Z,67.76
2023-05-10T18:01:41.098Z,67.90
2023-05-10T18:06:45.157Z,67.22
2023-05-10T18:11:51.218Z,68.13
2023-05-10T18:16:57.332Z,68.36
2023-05-10T18:22:01.555Z,68.59
2023-05-10T18:27:07.823Z,68.17
2023-05-10T18:32:12.225Z,68.74
2023-05-10T18:37:17.389Z,69.38
2023-05-10T18:42:23.022Z,69.75
2023-05-10T18:47:28.014Z,70.32
2023-05-10T18:52:32.741Z,70.22
2023-05-10T18:57:43.348Z,70.47
2023-05-10T19:02:48.100Z,70.88
2023-05-10T19:07:52.194Z,70.66
2023-05-10T19:13:00.023Z,70.57
2023-05-10T19:18:05.782Z,70.52
2023-05-10T19:23:10.911Z,70.36
2023-05-10T19:28:18.717Z,71.36
2023-05-10T19:33:23.640Z,71.02
2023-05-10T19:38:28.175Z,72.73
2023-05-10T19:43:36.923Z,72.45
2023-05-10T19:48:42.240Z,71.67
2023-05-10T19:53:46.672Z,71.45
2023-05-10T19:58:52.405Z,70.58
2023-05-10T20:03:58.508Z,70.80
2023-05-10T20:09:03.040Z,70.62
2023-05-10T20:14:12.973Z,70.98
2023-05-10T20:19:17.534Z,69.97
2023-05-10T20:24:22.160Z,69.68
2023-05-10T20:29:28.390Z,69.82
2023-05-10T20:34:32.799Z,69.11
2023-05-10T20:39:37.177Z,69.50
2023-05-10T20:44:44.480Z,69.83
2023-05-10T20:49:49.146Z,70.30
2023-05-10T20:54:53.518Z,71.01
2023-05-10T21:00:00.161Z,70.29
2023-05-10T21:05:05.985Z,70.43
2023-05-10T21:10:13.812Z,71.05
2023-05-10T21:15:22.711Z,70.64
2023-05-10T21:20:27.201Z,70.70
2023-05-10T21:25:31.537Z,71.57
2023-05-10T21:30:37.240Z,71.19
2023-05-10T21:35:43.078Z,71.49
2023-05-10T21:40:47.886Z,71.20
2023-05-10T21:45:53.753Z,71.52
2023-05-10T21:50:57.952Z,71.51
2023-05-10T21:56:02.106Z,71.56
2023-05-10T22:01:07.676Z,71.46
2023-05-10T22:06:12.047Z,72.41
2023-05-10T22:11:16.282Z,71.68
2023-05-10T22:16:22.726Z,72.58
2023-05-10T22:21:26.811Z,72.18
2023-05-10T22:26:31.201Z,72.60
2023-05-10T22:31:38.432Z,72.44
2023-05-10T22:36:42.784Z,72.50
2023-05-10T22:41:48.432Z,72.50
2023-05-10T22:46:54.016Z,72.48
2023-05-10T22:51:58.311Z,72.77
2023-05-10T22:57:02.435Z,73.14
2023-05-10T23:02:09.383Z,72.63
2023-05-10T23:07:13.841Z,72.17
2023-05-10T23:12:19.338Z,72.68
2023-05-10T23:17:25.340Z,72.49
2023-05-10T23:22:29.844Z,71.76
2023-05-10T23:27:34.185Z,71.48
2023-05-10T23:32:39.805Z,70.88
2023-05-10T23:37:43.908Z,70.89
2023-05-10T23:42:48.078Z,70.67
2023-05-10T23:47:53.592Z,70.03
2023-05-10T23:52:57.962Z,69.84
2023-05-10T23:58:02.151Z,69.68
